Time;durP1;ratioP1;P1;durP2;ratioP2;P2;SDS_P1;SDS_P2;PMS_P1;PMS_P2;Temp;Humidity;BMP_temperature;BMP_pressure;BME280_temperature;BME280_humidity;BME280_pressure;Samples;Min_cycle;Max_cycle;Signal;HPM_P1;HPM_P2
2023/01/06 00:00:18;;;;;;;;;;;;;;;20.27;53.18;101619.28;5021228;28;4122;-64
2023/01/06 00:02:45;;;;;;;;;;;;;;;20.26;53.13;101608.41;5024816;28;4111;-64
2023/01/06 00:05:12;;;;;;;;;;;;;;;20.24;53.33;101614.78;5019861;28;4321;-64
2023/01/06 00:07:38;;;;;;;;;;;;;;;20.28;53.28;101617.16;5022205;28;4185;-63
2023/01/06 00:10:05;;;;;;;;;;;;;;;20.29;53.46;101619.41;5019694;28;4294;-64
2023/01/06 00:12:31;;;;;;;;;;;;;;;20.30;53.47;101614.41;5021782;28;4143;-63
2023/01/06 00:14:57;;;;;;;;;;;;;;;20.29;53.18;101607.13;5023780;28;4824;-63
2023/01/06 00:17:24;;;;;;;;;;;;;;;20.28;53.29;101599.91;5018388;28;4306;-64
2023/01/06 00:19:50;;;;;;;;;;;;;;;20.27;53.41;101593.41;5021460;28;4143;-64
2023/01/06 00:22:17;;;;;;;;;;;;;;;20.28;53.20;101594.16;5021462;28;5121;-64
2023/01/06 00:24:47;;;;;;;;;;;;;;;20.26;53.24;101591.16;5021909;28;4086;-64
2023/01/06 00:27:13;;;;;;;;;;;;;;;20.26;53.23;101599.78;5021076;28;4447;-64
2023/01/06 00:29:42;;;;;;;;;;;;;;;20.26;53.19;101602.66;5023104;28;5109;-64
2023/01/06 00:32:09;;;;;;;;;;;;;;;20.25;53.22;101609.78;4996026;28;6271;-65
2023/01/06 00:34:35;;;;;;;;;;;;;;;20.25;53.35;101596.16;5021247;28;4198;-64
2023/01/06 00:37:02;;;;;;;;;;;;;;;20.24;53.29;101599.66;5024068;28;4089;-64
2023/01/06 00:39:29;;;;;;;;;;;;;;;20.24;53.22;101599.66;5027077;28;5134;-64
2023/01/06 00:42:05;;;;;;;;;;;;;;;20.22;53.28;101605.28;5022149;28;4165;-64
2023/01/06 00:44:35;;;;;;;;;;;;;;;20.22;53.31;101602.41;5025308;28;5962;-64
2023/01/06 00:47:02;;;;;;;;;;;;;;;20.21;53.12;101601.66;5026066;28;4153;-64
2023/01/06 00:49:28;;;;;;;;;;;;;;;20.21;53.10;101600.91;5022317;28;3985;-64
2023/01/06 00:51:58;;;;;;;;;;;;;;;20.20;53.15;101603.06;5023267;28;5428;-64
2023/01/06 00:54:24;;;;;;;;;;;;;;;20.19;53.13;101595.03;5026325;28;4090;-64
2023/01/06 00:56:52;;;;;;;;;;;;;;;20.19;53.22;101601.53;5023906;28;4110;-64
2023/01/06 00:59:22;;;;;;;;;;;;;;;20.20;53.02;101599.41;5007878;28;5480;-64
2023/01/06 01:01:49;;;;;;;;;;;;;;;20.18;53.08;101593.53;5025182;28;4010;-64
2023/01/06 01:04:22;;;;;;;;;;;;;;;20.17;53.13;101589.91;5021464;28;4157;-64
2023/01/06 01:06:48;;;;;;;;;;;;;;;20.16;53.19;101587.66;5010116;28;4193;-64
2023/01/06 01:09:15;;;;;;;;;;;;;;;20.17;53.13;101589.16;5022562;28;4459;-64
2023/01/06 01:14:31;;;;;;;;;;;;;;;20.14;53.22;101594.06;5024526;28;4166;-64
2023/01/06 01:16:57;;;;;;;;;;;;;;;20.13;53.03;101588.94;5023374;28;5222;-64
2023/01/06 01:19:26;;;;;;;;;;;;;;;20.13;53.10;101586.78;5023225;28;5195;-64
2023/01/06 01:21:53;;;;;;;;;;;;;;;20.11;53.09;101580.91;5027959;28;4203;-64
2023/01/06 01:24:19;;;;;;;;;;;;;;;20.11;53.05;101568.69;5024612;28;4340;-64
2023/01/06 01:26:46;;;;;;;;;;;;;;;20.09;53.21;101567.19;5010937;28;4080;-64
2023/01/06 01:29:16;;;;;;;;;;;;;;;20.09;53.17;101564.31;5021717;28;4131;-64
2023/01/06 01:31:43;;;;;;;;;;;;;;;20.09;53.16;101566.44;5003312;28;5306;-64
2023/01/06 01:34:10;;;;;;;;;;;;;;;20.08;52.92;101568.56;5007088;28;5238;-64
2023/01/06 01:36:40;;;;;;;;;;;;;;;20.08;53.03;101570.69;5026093;28;4353;-64
2023/01/06 01:39:06;;;;;;;;;;;;;;;20.07;53.11;101569.94;5022801;28;4037;-64
2023/01/06 01:41:32;;;;;;;;;;;;;;;20.06;53.12;101565.56;5027861;28;5358;-66
2023/01/06 01:44:00;;;;;;;;;;;;;;;20.05;53.04;101566.94;5021954;28;4125;-63
2023/01/06 01:46:33;;;;;;;;;;;;;;;20.04;52.99;101562.59;5023890;28;4136;-65
2023/01/06 01:49:00;;;;;;;;;;;;;;;20.04;53.03;101553.97;5002515;28;4110;-66
2023/01/06 01:51:34;;;;;;;;;;;;;;;20.03;52.94;101563.22;5002381;28;4151;-66
2023/01/06 01:54:01;;;;;;;;;;;;;;;20.04;53.09;101553.97;4988813;28;4125;-66
2023/01/06 01:56:28;;;;;;;;;;;;;;;20.01;53.11;101555.19;5016497;28;5450;-66
2023/01/06 01:59:06;;;;;;;;;;;;;;;20.02;52.86;101547.31;5000039;28;4946;-66
2023/01/06 02:01:32;;;;;;;;;;;;;;;20.01;53.12;101555.19;5008328;28;4099;-65
2023/01/06 02:04:02;;;;;;;;;;;;;;;20.02;52.96;101545.22;5022264;28;5348;-65
2023/01/06 02:06:29;;;;;;;;;;;;;;;20.02;52.98;101542.34;5000623;28;5409;-66
2023/01/06 02:09:12;;;;;;;;;;;;;;;20.05;52.92;101549.69;5023929;28;4883;-66
2023/01/06 02:11:38;;;;;;;;;;;;;;;20.07;52.84;101546.19;5000229;28;4142;-65
2023/01/06 02:14:07;;;;;;;;;;;;;;;20.08;52.94;101536.19;5022062;28;4165;-66
2023/01/06 02:16:52;;;;;;;;;;;;;;;20.08;53.10;101531.19;5025579;28;4105;-66
2023/01/06 02:19:18;;;;;;;;;;;;;;;20.09;53.08;101521.19;5015360;28;4124;-65
2023/01/06 02:21:49;;;;;;;;;;;;;;;20.11;53.29;101522.69;4998988;28;4396;-66
2023/01/06 02:24:25;;;;;;;;;;;;;;;20.09;53.21;101508.94;4996830;28;4294;-66
2023/01/06 02:27:12;;;;;;;;;;;;;;;20.10;53.50;101527.69;5022112;28;4309;-66
2023/01/06 02:29:44;;;;;;;;;;;;;;;20.11;53.34;101528.41;4994210;28;4080;-66
2023/01/06 02:32:11;;;;;;;;;;;;;;;20.09;53.46;101524.06;4996415;28;5354;-66
2023/01/06 02:34:53;;;;;;;;;;;;;;;20.11;53.51;101516.91;4998894;28;4582;-66
2023/01/06 02:37:38;;;;;;;;;;;;;;;20.09;53.44;101508.94;4996944;28;4164;-65
2023/01/06 02:40:10;;;;;;;;;;;;;;;20.07;53.45;101503.81;4990189;28;4225;-66
2023/01/06 02:42:44;;;;;;;;;;;;;;;20.07;53.37;101503.06;5021670;28;4314;-65
2023/01/06 02:45:21;;;;;;;;;;;;;;;20.08;53.38;101496.69;4981057;28;4013;-65
2023/01/06 02:47:55;;;;;;;;;;;;;;;20.08;53.33;101507.44;4985685;28;5535;-65
2023/01/06 02:50:36;;;;;;;;;;;;;;;20.07;53.54;101500.94;4990153;28;4160;-65
2023/01/06 02:53:08;;;;;;;;;;;;;;;20.06;53.51;101505.19;4999568;28;4018;-65
2023/01/06 02:55:44;;;;;;;;;;;;;;;20.06;53.49;101504.44;5020005;28;4215;-65
2023/01/06 02:58:16;;;;;;;;;;;;;;;20.05;53.33;101503.69;5021830;28;4222;-64
2023/01/06 03:00:44;;;;;;;;;;;;;;;20.05;53.59;101512.31;5024281;28;4020;-65
2023/01/06 03:03:13;;;;;;;;;;;;;;;20.05;53.41;101503.69;4990557;28;4014;-64
2023/01/06 03:05:40;;;;;;;;;;;;;;;20.03;53.30;101500.69;4998287;28;4182;-65
2023/01/06 03:08:07;;;;;;;;;;;;;;;20.04;53.38;101504.31;4980957;28;4466;-65
2023/01/06 03:10:34;;;;;;;;;;;;;;;20.02;53.33;101490.59;4998964;28;4088;-65
2023/01/06 03:13:14;;;;;;;;;;;;;;;20.01;53.25;101486.22;4988983;28;4055;-65
2023/01/06 03:15:41;;;;;;;;;;;;;;;20.01;53.44;101477.59;5006209;28;4142;-65
2023/01/06 03:18:07;;;;;;;;;;;;;;;20.00;53.31;101473.22;5004009;28;4221;-64
2023/01/06 03:20:34;;;;;;;;;;;;;;;20.00;53.26;101476.09;4984031;28;4257;-64
2023/01/06 03:23:01;;;;;;;;;;;;;;;20.00;53.12;101473.22;4997305;28;4006;-64
2023/01/06 03:25:29;;;;;;;;;;;;;;;19.99;53.19;101471.72;5005857;28;4107;-64
2023/01/06 03:27:56;;;;;;;;;;;;;;;19.98;53.22;101470.22;4988576;28;4005;-65
2023/01/06 03:30:23;;;;;;;;;;;;;;;19.98;53.32;101470.22;5004279;28;5269;-64
2023/01/06 03:33:00;;;;;;;;;;;;;;;19.97;53.21;101465.84;5005702;28;4316;-64
2023/01/06 03:35:46;;;;;;;;;;;;;;;19.96;53.06;101467.22;5007440;28;5180;-65
2023/01/06 03:38:19;;;;;;;;;;;;;;;19.95;53.26;101460.00;5002151;28;5236;-64
2023/01/06 03:40:52;;;;;;;;;;;;;;;19.94;53.16;101457.75;4999188;28;4037;-64
2023/01/06 03:43:23;;;;;;;;;;;;;;;19.94;53.28;101452.75;5000383;28;4264;-64
2023/01/06 03:46:08;;;;;;;;;;;;;;;19.94;53.16;101443.38;5004893;28;4104;-64
2023/01/06 03:48:41;;;;;;;;;;;;;;;19.94;53.06;101429.75;4995504;28;4156;-64
2023/01/06 03:51:08;;;;;;;;;;;;;;;19.96;53.28;101438.50;4999026;28;4180;-65
2023/01/06 03:53:48;;;;;;;;;;;;;;;19.99;53.22;101433.59;4995473;28;5448;-65
2023/01/06 03:56:20;;;;;;;;;;;;;;;20.00;53.35;101438.72;4980463;28;5460;-64
2023/01/06 03:58:47;;;;;;;;;;;;;;;20.00;53.27;101432.97;4980975;28;5282;-64
2023/01/06 04:01:19;;;;;;;;;;;;;;;20.03;53.37;101442.47;5023237;28;4183;-64
2023/01/06 04:03:46;;;;;;;;;;;;;;;20.02;53.40;101435.97;5027190;28;4199;-64
2023/01/06 04:06:13;;;;;;;;;;;;;;;20.04;53.38;101436.09;5007946;28;4165;-65
2023/01/06 04:08:39;;;;;;;;;;;;;;;20.06;53.41;101433.31;5004723;28;5243;-65
2023/01/06 04:11:06;;;;;;;;;;;;;;;20.06;53.75;101424.69;5006389;28;4280;-65
2023/01/06 04:13:32;;;;;;;;;;;;;;;20.06;53.57;101430.44;5009573;28;4181;-65
2023/01/06 04:15:59;;;;;;;;;;;;;;;20.06;53.51;101424.69;5005874;28;5434;-65
2023/01/06 04:18:25;;;;;;;;;;;;;;;20.05;53.80;101414.56;5024739;28;4131;-65
2023/01/06 04:20:52;;;;;;;;;;;;;;;20.05;53.63;101405.94;4997667;28;4204;-65
2023/01/06 04:23:24;;;;;;;;;;;;;;;20.06;53.73;101401.69;4999009;28;5349;-65
2023/01/06 04:25:51;;;;;;;;;;;;;;;20.08;53.94;101410.41;5024532;28;4017;-65
2023/01/06 04:28:24;;;;;;;;;;;;;;;20.08;53.74;101407.53;5002415;28;5229;-65
2023/01/06 04:30:51;;;;;;;;;;;;;;;20.09;53.76;101406.19;5010287;28;4191;-64
2023/01/06 04:33:18;;;;;;;;;;;;;;;20.12;53.66;101409.19;5030472;28;4182;-64
2023/01/06 04:35:46;;;;;;;;;;;;;;;20.14;53.70;101401.41;5024766;28;4108;-66
2023/01/06 04:38:17;;;;;;;;;;;;;;;20.14;53.89;101397.78;5006677;28;4205;-65
2023/01/06 04:40:43;;;;;;;;;;;;;;;20.12;54.09;101397.66;5025444;28;4248;-65
2023/01/06 04:43:14;;;;;;;;;;;;;;;20.11;54.00;101396.16;5025673;28;4177;-65
2023/01/06 04:45:41;;;;;;;;;;;;;;;20.13;54.07;101379.03;5028253;28;5271;-65
2023/01/06 04:48:10;;;;;;;;;;;;;;;20.14;54.23;101369.03;5024049;28;5218;-65
2023/01/06 04:50:37;;;;;;;;;;;;;;;20.14;54.68;101366.16;5024017;28;5253;-64
2023/01/06 04:53:06;;;;;;;;;;;;;;;20.16;54.79;101357.63;5027316;28;4177;-65
2023/01/06 04:55:32;;;;;;;;;;;;;;;20.15;54.90;101361.88;5025971;28;4006;-65
2023/01/06 04:57:58;;;;;;;;;;;;;;;20.17;54.77;101353.38;5027081;28;4084;-65
2023/01/06 05:00:25;;;;;;;;;;;;;;;20.19;55.12;101344.88;5026434;28;5186;-65
2023/01/06 05:02:51;;;;;;;;;;;;;;;20.19;54.88;101351.34;5024004;28;4202;-65
2023/01/06 05:05:17;;;;;;;;;;;;;;;20.19;55.07;101345.59;5026166;28;4256;-65
2023/01/06 05:07:44;;;;;;;;;;;;;;;20.18;55.02;101344.13;5024510;28;4038;-65
2023/01/06 05:10:13;;;;;;;;;;;;;;;20.19;54.95;101345.59;5025325;28;4242;-65
2023/01/06 05:12:39;;;;;;;;;;;;;;;20.18;55.12;101346.22;5025431;28;5392;-65
2023/01/06 05:15:06;;;;;;;;;;;;;;;20.19;54.86;101345.59;5025937;28;4119;-65
2023/01/06 05:17:35;;;;;;;;;;;;;;;20.19;55.05;101344.88;5027307;28;4147;-65
2023/01/06 05:20:02;;;;;;;;;;;;;;;20.21;55.05;101342.09;5026601;28;4125;-65
2023/01/06 05:22:28;;;;;;;;;;;;;;;20.20;55.15;101338.50;5027076;28;4296;-65
2023/01/06 05:24:55;;;;;;;;;;;;;;;20.22;55.13;101329.22;5023928;28;3997;-65
2023/01/06 05:27:21;;;;;;;;;;;;;;;20.22;55.19;101327.06;5017346;28;5191;-65
2023/01/06 05:29:47;;;;;;;;;;;;;;;20.23;55.12;101327.84;5024836;28;4030;-65
2023/01/06 05:32:14;;;;;;;;;;;;;;;20.23;55.03;101333.59;5023557;28;4260;-65
2023/01/06 05:34:40;;;;;;;;;;;;;;;20.24;54.97;101326.44;5026732;28;4188;-65
2023/01/06 05:37:06;;;;;;;;;;;;;;;20.23;55.26;101322.09;5023470;28;4223;-65
2023/01/06 05:39:32;;;;;;;;;;;;;;;20.22;55.33;101327.06;5023487;28;4220;-65
2023/01/06 05:41:59;;;;;;;;;;;;;;;20.23;55.20;101322.09;5014581;28;4131;-65
2023/01/06 05:44:25;;;;;;;;;;;;;;;20.24;55.33;101312.81;5017941;28;5227;-65
2023/01/06 05:46:52;;;;;;;;;;;;;;;20.24;55.16;101312.06;5018920;28;4198;-65
2023/01/06 05:49:18;;;;;;;;;;;;;;;20.24;55.12;101306.31;5022376;28;4179;-65
2023/01/06 05:51:44;;;;;;;;;;;;;;;20.25;54.99;101313.56;5019653;28;3961;-66
2023/01/06 05:54:13;;;;;;;;;;;;;;;20.26;54.95;101323.69;5023888;28;4192;-65
2023/01/06 05:56:40;;;;;;;;;;;;;;;20.27;55.06;101330.91;5023117;28;4045;-65
2023/01/06 05:59:06;;;;;;;;;;;;;;;20.28;55.09;101329.53;5026140;28;3970;-64
2023/01/06 06:01:32;;;;;;;;;;;;;;;20.26;54.95;101315.78;5013759;28;4026;-65
2023/01/06 06:03:59;;;;;;;;;;;;;;;20.28;54.70;101318.78;5019359;28;4245;-65
2023/01/06 06:06:26;;;;;;;;;;;;;;;20.25;54.72;101307.81;5021074;28;3971;-65
2023/01/06 06:08:52;;;;;;;;;;;;;;;18.98;49.79;101289.19;5018198;28;4054;-70
2023/01/06 06:11:18;;;;;;;;;;;;;;;18.59;49.70;101293.34;5021127;28;4035;-70
2023/01/06 06:13:45;;;;;;;;;;;;;;;18.97;49.86;101293.44;5020677;28;4128;-68
2023/01/06 06:16:12;;;;;;;;;;;;;;;18.98;50.20;101283.47;5017890;28;4077;-69
2023/01/06 06:18:51;;;;;;;;;;;;;;;19.12;50.55;101290.03;5014819;28;4245;-69
2023/01/06 06:21:21;;;;;;;;;;;;;;;19.07;49.29;101287.56;5017243;28;5394;-69
2023/01/06 06:23:47;;;;;;;;;;;;;;;19.04;49.17;101295.31;5023495;28;4058;-71
2023/01/06 06:26:19;;;;;;;;;;;;;;;18.96;48.82;101291.94;5016956;28;4044;-73
2023/01/06 06:28:46;;;;;;;;;;;;;;;19.04;48.63;101293.16;5007178;28;4248;-70
2023/01/06 06:31:13;;;;;;;;;;;;;;;18.84;48.40;101286.97;5021379;28;4156;-69
2023/01/06 06:33:40;;;;;;;;;;;;;;;18.74;48.06;101289.22;5017154;28;4228;-68
2023/01/06 06:36:10;;;;;;;;;;;;;;;19.18;47.35;101284.63;5017346;28;4490;-76
2023/01/06 06:38:37;;;;;;;;;;;;;;;19.47;47.14;101277.66;5021663;28;4225;-76
2023/01/06 06:41:03;;;;;;;;;;;;;;;19.57;46.90;101281.09;5015005;28;4516;-73
2023/01/06 06:43:30;;;;;;;;;;;;;;;19.57;47.89;101278.22;5020660;28;4149;-69
2023/01/06 06:45:59;;;;;;;;;;;;;;;19.57;47.94;101261.00;5012481;28;4174;-67
2023/01/06 06:48:44;;;;;;;;;;;;;;;19.62;47.83;101273.44;5003562;28;5203;-69
2023/01/06 06:51:15;;;;;;;;;;;;;;;19.58;48.00;101268.22;5015327;28;4170;-66
2023/01/06 06:53:42;;;;;;;;;;;;;;;19.50;48.21;101267.03;5017953;28;4204;-66
2023/01/06 06:56:08;;;;;;;;;;;;;;;19.49;48.14;101269.13;5024702;28;5415;-66
2023/01/06 06:58:35;;;;;;;;;;;;;;;19.44;48.30;101258.81;5025394;28;5197;-66
2023/01/06 07:01:11;;;;;;;;;;;;;;;19.43;48.39;101245.84;5024176;28;4035;-66
2023/01/06 07:03:38;;;;;;;;;;;;;;;19.38;48.55;101249.88;5025365;28;4482;-66
2023/01/06 07:06:08;;;;;;;;;;;;;;;19.33;48.89;101248.88;5023702;28;5331;-67
2023/01/06 07:08:35;;;;;;;;;;;;;;;19.39;48.57;101240.59;5024564;28;6568;-66
2023/01/06 07:11:01;;;;;;;;;;;;;;;19.40;48.52;101244.22;5024454;28;5085;-66
2023/01/06 07:13:30;;;;;;;;;;;;;;;19.41;48.43;101254.34;5023488;28;4170;-66
2023/01/06 07:15:56;;;;;;;;;;;;;;;19.44;48.37;101247.31;5024330;28;4321;-66
2023/01/06 07:18:23;;;;;;;;;;;;;;;19.44;48.29;101248.06;5023071;28;5469;-67
2023/01/06 07:20:51;;;;;;;;;;;;;;;19.41;48.36;101242.84;5024879;28;4187;-67
2023/01/06 07:23:18;;;;;;;;;;;;;;;19.39;48.37;101246.34;5024620;28;5647;-66
2023/01/06 07:25:44;;;;;;;;;;;;;;;19.45;48.33;101248.81;5023760;28;4235;-67
2023/01/06 07:28:10;;;;;;;;;;;;;;;19.40;48.33;101258.56;5023461;28;4227;-66
2023/01/06 07:30:37;;;;;;;;;;;;;;;19.41;48.39;101260.09;5024360;28;5286;-66
2023/01/06 07:33:03;;;;;;;;;;;;;;;19.41;48.31;101249.34;5024358;28;4508;-66
2023/01/06 07:35:29;;;;;;;;;;;;;;;19.33;48.50;101257.47;5022572;28;4150;-66
2023/01/06 07:38:00;;;;;;;;;;;;;;;19.40;48.42;101252.81;5024880;28;4142;-67
2023/01/06 07:40:27;;;;;;;;;;;;;;;19.24;48.83;101252.66;5020727;28;4085;-68
2023/01/06 07:42:53;;;;;;;;;;;;;;;18.48;48.45;101244.59;5016865;28;4247;-66
2023/01/06 07:45:20;;;;;;;;;;;;;;;19.03;48.43;101240.03;5023203;28;4134;-69
2023/01/06 07:47:46;;;;;;;;;;;;;;;19.49;48.13;101254.78;5024377;28;4475;-64
2023/01/06 07:50:12;;;;;;;;;;;;;;;19.69;48.37;101248.72;5023502;28;4170;-66
2023/01/06 07:52:39;;;;;;;;;;;;;;;19.82;48.77;101256.63;5023915;28;4466;-66
2023/01/06 07:55:05;;;;;;;;;;;;;;;19.97;50.74;101261.75;5022437;28;5187;-73
2023/01/06 07:57:32;;;;;;;;;;;;;;;20.23;51.06;101253.06;5022950;28;4301;-74
2023/01/06 07:59:58;;;;;;;;;;;;;;;20.39;51.81;101239.53;5017551;28;4665;-72
2023/01/06 08:02:37;;;;;;;;;;;;;;;20.50;51.33;101237.94;5022238;28;4293;-70
2023/01/06 08:05:03;;;;;;;;;;;;;;;20.54;51.03;101228.78;5022488;28;5815;-72
2023/01/06 08:07:30;;;;;;;;;;;;;;;20.63;50.78;101214.19;5018280;28;5167;-70
2023/01/06 08:09:56;;;;;;;;;;;;;;;20.66;50.50;101217.91;4997038;28;4182;-72
2023/01/06 08:12:22;;;;;;;;;;;;;;;20.70;50.53;101218.13;5018988;28;4152;-72
2023/01/06 08:14:49;;;;;;;;;;;;;;;20.73;51.14;101227.59;5021255;28;4177;-73
2023/01/06 08:17:15;;;;;;;;;;;;;;;20.74;51.12;101217.59;5022606;28;4387;-71
2023/01/06 08:19:41;;;;;;;;;;;;;;;20.81;50.58;101220.13;5025035;28;3946;-71
2023/01/06 08:22:08;;;;;;;;;;;;;;;20.82;50.53;101212.22;5019927;28;4337;-76
2023/01/06 08:24:37;;;;;;;;;;;;;;;20.80;50.63;101201.38;5028752;28;4037;-71
2023/01/06 08:27:06;;;;;;;;;;;;;;;20.83;51.24;101200.06;5019804;28;4046;-73
2023/01/06 08:29:32;;;;;;;;;;;;;;;20.95;51.02;101191.28;5016243;28;5576;-74
2023/01/06 08:31:59;;;;;;;;;;;;;;;20.96;51.02;101212.19;5015570;28;4212;-71
2023/01/06 08:34:36;;;;;;;;;;;;;;;20.91;50.83;101214.13;5023358;28;4196;-70
2023/01/06 08:37:02;;;;;;;;;;;;;;;20.90;51.01;101212.63;5020688;28;4142;-73
2023/01/06 08:39:28;;;;;;;;;;;;;;;20.89;50.96;101193.88;5006095;28;4484;-70
2023/01/06 08:41:55;;;;;;;;;;;;;;;20.89;51.17;101206.13;5023743;28;4166;-69
2023/01/06 08:44:21;;;;;;;;;;;;;;;20.92;51.02;101199.09;5023189;28;4148;-69
2023/01/06 08:46:48;;;;;;;;;;;;;;;20.95;50.94;101187.66;5023941;28;4165;-68
2023/01/06 08:49:15;;;;;;;;;;;;;;;20.99;51.02;101196.53;5023434;28;4104;-68
2023/01/06 08:51:41;;;;;;;;;;;;;;;20.98;51.19;101186.38;5023213;28;4018;-69
2023/01/06 08:54:07;;;;;;;;;;;;;;;20.97;51.15;101188.50;5023313;28;5268;-68
2023/01/06 08:56:34;;;;;;;;;;;;;;;21.01;51.06;101171.44;5026086;28;4164;-70
2023/01/06 08:59:01;;;;;;;;;;;;;;;20.87;51.35;101191.66;5026092;28;4094;-66
2023/01/06 09:01:28;;;;;;;;;;;;;;;20.68;51.83;101174.84;5019115;28;5218;-64
2023/01/06 09:03:55;;;;;;;;;;;;;;;20.63;52.28;101173.91;5023928;28;4187;-64
2023/01/06 09:06:22;;;;;;;;;;;;;;;20.61;52.47;101193.19;5023259;28;4134;-66
2023/01/06 09:08:52;;;;;;;;;;;;;;;20.58;52.17;101189.47;5026609;28;4217;-66
2023/01/06 09:11:18;;;;;;;;;;;;;;;20.56;52.36;101202.97;5024919;28;4225;-66
2023/01/06 09:13:45;;;;;;;;;;;;;;;20.52;52.58;101197.75;5026281;28;4082;-65
2023/01/06 09:16:12;;;;;;;;;;;;;;;20.53;52.48;101187.00;5025847;28;4113;-66
2023/01/06 09:18:38;;;;;;;;;;;;;;;20.53;52.54;101192.78;5025555;28;4127;-66
2023/01/06 09:21:04;;;;;;;;;;;;;;;20.53;52.57;101184.13;5027264;28;4203;-66
2023/01/06 09:23:36;;;;;;;;;;;;;;;20.54;52.46;101171.22;5026437;28;4183;-66
2023/01/06 09:26:03;;;;;;;;;;;;;;;20.53;52.84;101169.75;5025729;28;4168;-66
2023/01/06 09:28:30;;;;;;;;;;;;;;;20.56;52.75;101182.84;5025620;28;4091;-67
2023/01/06 09:30:56;;;;;;;;;;;;;;;20.54;52.70;101174.09;5025847;28;4163;-66
2023/01/06 09:33:22;;;;;;;;;;;;;;;20.55;52.93;101172.69;5025490;28;4141;-66
2023/01/06 09:35:51;;;;;;;;;;;;;;;20.55;52.77;101161.19;5026536;28;4068;-65
2023/01/06 09:38:17;;;;;;;;;;;;;;;20.55;52.93;101158.31;5025721;28;4846;-65
2023/01/06 09:40:58;;;;;;;;;;;;;;;20.78;52.64;101166.72;5026002;28;4214;-72
2023/01/06 09:43:31;;;;;;;;;;;;;;;21.17;52.16;101159.97;4999294;28;4567;-66
2023/01/06 09:45:59;;;;;;;;;;;;;;;21.28;51.55;101159.06;4994884;28;4769;-66
2023/01/06 09:48:32;;;;;;;;;;;;;;;21.27;51.09;101139.53;4997320;28;4174;-66
2023/01/06 09:50:59;;;;;;;;;;;;;;;21.30;51.04;101135.34;4995904;28;5283;-66
2023/01/06 09:53:29;;;;;;;;;;;;;;;21.32;50.85;101135.44;5008730;28;4168;-65
2023/01/06 09:55:59;;;;;;;;;;;;;;;21.30;50.84;101127.47;4999210;28;6353;-65
2023/01/06 09:58:32;;;;;;;;;;;;;;;21.17;51.55;101125.41;5026145;28;5194;-72
2023/01/06 10:01:00;;;;;;;;;;;;;;;21.10;51.76;101118.63;5027520;28;4180;-71
2023/01/06 10:03:26;;;;;;;;;;;;;;;21.26;51.69;101120.78;5008068;28;4105;-68
2023/01/06 10:05:52;;;;;;;;;;;;;;;21.38;51.30;101109.81;5028020;28;4547;-68
2023/01/06 10:08:24;;;;;;;;;;;;;;;21.41;51.03;101113.56;5025377;28;5089;-67
2023/01/06 10:10:58;;;;;;;;;;;;;;;21.70;50.61;101110.56;5008970;28;4220;-67
2023/01/06 10:13:31;;;;;;;;;;;;;;;21.77;50.58;101107.97;5002444;28;4175;-68
2023/01/06 10:16:01;;;;;;;;;;;;;;;21.54;50.65;101098.31;5005060;28;5244;-67
2023/01/06 10:18:43;;;;;;;;;;;;;;;21.58;51.10;101097.75;5027983;28;4216;-68
2023/01/06 10:21:12;;;;;;;;;;;;;;;21.59;50.61;101091.34;5025500;28;4143;-69
2023/01/06 10:23:59;;;;;;;;;;;;;;;21.58;50.67;101098.50;5026444;28;4188;-69
2023/01/06 10:26:33;;;;;;;;;;;;;;;21.66;50.62;101092.34;5026353;28;4097;-69
2023/01/06 10:29:11;;;;;;;;;;;;;;;21.77;50.51;101084.91;5000937;28;6305;-70
2023/01/06 10:31:39;;;;;;;;;;;;;;;21.58;50.63;101069.69;5025889;28;4197;-68
2023/01/06 10:34:05;;;;;;;;;;;;;;;21.54;50.85;101069.50;5026024;28;4078;-66
2023/01/06 10:36:36;;;;;;;;;;;;;;;21.60;50.99;101063.25;5003722;28;4199;-66
2023/01/06 10:39:05;;;;;;;;;;;;;;;21.74;50.63;101070.41;5026028;28;4093;-67
2023/01/06 10:41:40;;;;;;;;;;;;;;;21.80;50.70;101060.53;5009426;28;5215;-67
2023/01/06 10:44:08;;;;;;;;;;;;;;;21.73;50.63;101066.03;5008971;28;5179;-71
2023/01/06 10:46:34;;;;;;;;;;;;;;;21.78;50.59;101057.56;5028547;28;3995;-72
2023/01/06 10:49:01;;;;;;;;;;;;;;;21.71;50.43;101060.16;5025874;28;3990;-71
2023/01/06 10:51:34;;;;;;;;;;;;;;;21.69;50.65;101060.09;5027362;28;4153;-67
2023/01/06 10:54:11;;;;;;;;;;;;;;;21.60;50.86;101064.03;5011666;28;4169;-64
2023/01/06 10:56:37;;;;;;;;;;;;;;;21.44;51.42;101066.16;5010014;28;4102;-64
2023/01/06 10:59:07;;;;;;;;;;;;;;;21.32;51.40;101055.53;5027732;28;3986;-64
2023/01/06 11:01:34;;;;;;;;;;;;;;;21.09;51.84;101062.41;5027561;28;4271;-71
2023/01/06 11:04:10;;;;;;;;;;;;;;;20.93;52.56;101059.50;5026625;28;4189;-65
2023/01/06 11:06:44;;;;;;;;;;;;;;;20.95;52.36;101056.00;5024905;28;6328;-65
2023/01/06 11:09:29;;;;;;;;;;;;;;;20.95;52.51;101052.38;5025030;28;4178;-66
2023/01/06 11:11:56;;;;;;;;;;;;;;;20.95;52.29;101049.50;5025599;28;4009;-61
2023/01/06 11:14:27;;;;;;;;;;;;;;;20.94;52.52;101048.75;5010693;28;4097;-65
2023/01/06 11:16:55;;;;;;;;;;;;;;;20.92;52.38;101032.13;5024220;28;5076;-66
2023/01/06 11:19:22;;;;;;;;;;;;;;;20.93;52.55;101036.47;4999593;28;4297;-65
2023/01/06 11:21:49;;;;;;;;;;;;;;;21.04;52.45;101039.84;5003260;28;4799;-68
2023/01/06 11:24:19;;;;;;;;;;;;;;;21.03;52.57;101026.84;5028126;28;4114;-66
2023/01/06 11:26:50;;;;;;;;;;;;;;;20.98;53.02;101028.03;5024860;28;3986;-69
2023/01/06 11:29:27;;;;;;;;;;;;;;;21.00;53.32;101016.63;5023855;28;4070;-69
2023/01/06 11:31:58;;;;;;;;;;;;;;;21.11;52.48;101018.56;5025504;28;5277;-67
2023/01/06 11:34:25;;;;;;;;;;;;;;;21.22;52.20;101023.41;5026767;28;5373;-66
2023/01/06 11:36:51;;;;;;;;;;;;;;;21.20;51.95;101031.94;5026473;28;5433;-67
2023/01/06 11:39:20;;;;;;;;;;;;;;;21.18;51.82;101023.22;5025925;28;5095;-66
2023/01/06 11:41:48;;;;;;;;;;;;;;;21.15;52.41;101020.91;5026647;28;4570;-68
2023/01/06 11:44:18;;;;;;;;;;;;;;;21.14;52.33;101023.03;5000403;28;4598;-68
2023/01/06 11:46:48;;;;;;;;;;;;;;;21.19;52.25;101030.47;4996063;28;3909;-71
2023/01/06 11:49:17;;;;;;;;;;;;;;;21.21;52.03;101021.94;5008948;28;4743;-71
2023/01/06 11:51:46;;;;;;;;;;;;;;;21.18;51.89;101011.69;5024642;28;4021;-68
2023/01/06 11:54:20;;;;;;;;;;;;;;;21.18;51.75;101014.56;5025388;28;4144;-68
2023/01/06 11:57:06;;;;;;;;;;;;;;;21.17;51.97;101009.47;5001510;28;4346;-63
2023/01/06 11:59:51;;;;;;;;;;;;;;;21.22;52.21;100997.47;5011694;28;4224;-68
2023/01/06 12:02:26;;;;;;;;;;;;;;;21.19;52.05;101001.69;5023708;28;4145;-65
2023/01/06 12:04:53;;;;;;;;;;;;;;;20.87;52.50;101001.66;5006512;28;4055;-69
2023/01/06 12:07:22;;;;;;;;;;;;;;;20.93;52.58;101007.69;5025606;28;3958;-68
2023/01/06 12:09:49;;;;;;;;;;;;;;;20.98;52.60;100994.25;5007820;28;5336;-69
2023/01/06 12:12:18;;;;;;;;;;;;;;;20.57;52.92;100997.34;5006374;28;4149;-74
2023/01/06 12:14:44;;;;;;;;;;;;;;;20.87;52.36;101000.94;5003186;28;3947;-67
2023/01/06 12:17:12;;;;;;;;;;;;;;;20.99;52.42;100992.13;5025509;28;4089;-72
2023/01/06 12:19:48;;;;;;;;;;;;;;;21.14;52.28;100994.22;5025789;28;3998;-69
2023/01/06 12:22:19;;;;;;;;;;;;;;;21.12;52.19;100986.25;5024571;28;4438;-66
2023/01/06 12:24:46;;;;;;;;;;;;;;;21.19;52.45;100984.41;5009704;28;4267;-66
2023/01/06 12:27:19;;;;;;;;;;;;;;;21.34;52.45;100974.97;5002889;28;4185;-66
2023/01/06 12:29:45;;;;;;;;;;;;;;;21.33;52.14;100976.38;5030304;28;4456;-64
2023/01/06 12:32:13;;;;;;;;;;;;;;;21.34;51.93;100977.84;5027276;28;4111;-63
2023/01/06 12:34:41;;;;;;;;;;;;;;;21.33;52.08;100959.09;5003229;28;6321;-63
2023/01/06 12:37:14;;;;;;;;;;;;;;;21.42;51.84;100965.25;5029162;28;4163;-63
2023/01/06 12:40:01;;;;;;;;;;;;;;;21.21;51.95;100963.56;5028514;28;4186;-73
2023/01/06 12:42:30;;;;;;;;;;;;;;;21.30;52.16;100971.94;5029414;28;4132;-69
2023/01/06 12:45:19;;;;;;;;;;;;;;;21.31;51.87;100967.66;5031100;28;4070;-77
2023/01/06 12:47:52;;;;;;;;;;;;;;;21.15;52.27;100966.94;5030894;28;5152;-73
2023/01/06 12:50:31;;;;;;;;;;;;;;;21.10;52.26;100963.13;5025257;28;4570;-70
2023/01/06 12:53:11;;;;;;;;;;;;;;;21.04;52.43;100962.84;5001972;28;4130;-69
2023/01/06 12:56:01;;;;;;;;;;;;;;;21.06;52.84;100965.81;5012106;28;4353;-70
2023/01/06 12:58:46;;;;;;;;;;;;;;;21.03;52.69;100972.88;5026974;28;4303;-68
2023/01/06 13:01:15;;;;;;;;;;;;;;;21.05;52.88;100975.88;5030661;28;4301;-69